Burgtor — V2OR7 — position and weather

sailwx.info

Track history (hours):
 
Tides and Currents Weather Stations Pressure Air Temp Water Temp Dewpoint Dewpoint Depression Visibility Wind Speed Wind Dir Waves Ship Positions

Burgtor

Last reported at 2015-Aug-28 21:24 UTC. Time now 2015-Aug-29 00:17 UTC.
Position N 54°04' W 005°22'.

Length 87 m; draft 3.3 m.

Type: Cargo ship. MMSI: 304665000.

Date/timePositionNaut miles runAvg speedWind from/ knotsBaromVisibWave heightAir tempDewpointWater temp
2015-Aug-28 21:24N 54°04' W 005°22'7 7.9
2015-Aug-28 20:33N 54°11' W 005°21'8 7.8
2015-Aug-28 19:33N 54°19' W 005°19'9 8.5
2015-Aug-28 18:32N 54°27' W 005°19'10 9.9
2015-Aug-28 17:33N 54°36' W 005°25'9 8.6
2015-Aug-28 16:33N 54°42' W 005°37'2 2.1
2015-Aug-28 15:31N 54°41' W 005°40'0 0.0
2015-Aug-28 14:31N 54°41' W 005°40'0 0.0
2015-Aug-28 13:31N 54°41' W 005°40'0 0.0
2015-Aug-28 12:31N 54°41' W 005°40'0 0.0
2015-Aug-28 11:31N 54°41' W 005°40'0 0.0
2015-Aug-28 10:28N 54°41' W 005°40'0 0.0
2015-Aug-28 09:31N 54°41' W 005°40'0 0.0
2015-Aug-28 08:31N 54°41' W 005°40'0 0.0
2015-Aug-28 07:31N 54°41' W 005°40'0 0.0
2015-Aug-28 06:19N 54°41' W 005°40'0 0.0
2015-Aug-28 05:31N 54°41' W 005°40'0 0.0
2015-Aug-28 04:28N 54°41' W 005°40'0 0.0
2015-Aug-28 03:28N 54°41' W 005°40'0 0.0
2015-Aug-28 02:31N 54°41' W 005°40'0 0.0
2015-Aug-28 01:31N 54°41' W 005°40'0 0.0
2015-Aug-28 00:31N 54°41' W 005°40'0 0.0
2015-Aug-27 23:31N 54°41' W 005°40'0 0.0
2015-Aug-27 22:34N 54°41' W 005°40'0 0.0
2015-Aug-27 21:33N 54°41' W 005°40'0 0.0
2015-Aug-27 20:30N 54°41' W 005°40'0 0.0
2015-Aug-27 19:33N 54°41' W 005°40'0 0.1
2015-Aug-27 18:30N 54°41' W 005°40'0 0.0
2015-Aug-27 17:33N 54°41' W 005°40'0 0.0
2015-Aug-27 16:33N 54°41' W 005°40'0 0.0
2015-Aug-27 15:27N 54°41' W 005°40'0 0.1
2015-Aug-27 14:33N 54°41' W 005°40'0 0.0
2015-Aug-27 13:30N 54°41' W 005°40'0 0.0
2015-Aug-27 12:33N 54°41' W 005°40'0 0.0
2015-Aug-27 11:27N 54°41' W 005°40'0 0.0
2015-Aug-27 10:33N 54°41' W 005°40'0 0.0
2015-Aug-27 09:33N 54°41' W 005°40'0 0.0
2015-Aug-27 08:33N 54°41' W 005°40'0 0.0
2015-Aug-27 07:33N 54°41' W 005°40'1 1.0
2015-Aug-27 06:33N 54°42' W 005°40'9 9.4
2015-Aug-27 05:33N 54°51' W 005°36'22 9.2
2015-Aug-27 03:12N 55°10' W 005°54'6 8.7
2015-Aug-27 02:33N 55°15' W 005°60'7 7.4
2015-Aug-27 01:33N 55°21' W 006°07'7 6.7
2015-Aug-27 00:34N 55°21' W 006°19'7 7.0
2015-Aug-26 23:34N 55°19' W 006°31'7 7.2
2015-Aug-26 22:34N 55°17' W 006°43'3 0.1
2015-Aug-25 16:33N 55°16' W 006°48'8 7.7
2015-Aug-25 15:33N 55°19' W 006°36'8 8.0
2015-Aug-25 14:33N 55°23' W 006°23'8 7.7
2015-Aug-25 13:33N 55°25' W 006°10'8 8.5
2015-Aug-25 12:33N 55°20' W 005°59'1010.2
2015-Aug-25 11:33N 55°11' W 005°50'20 9.9
2015-Aug-25 09:33N 54°53' W 005°36'9 9.6
2015-Aug-25 08:33N 54°44' W 005°29'9 9.4
2015-Aug-25 07:33N 54°35' W 005°24'9 8.7
2015-Aug-25 06:33N 54°27' W 005°19'8 8.3
2015-Aug-25 05:33N 54°19' W 005°19'11 8.4
2015-Aug-25 04:18N 54°08' W 005°21'108 8.2
2015-Aug-24 15:15N 52°21' W 005°40'7 9.8
2015-Aug-24 14:30N 52°14' W 005°41'302 7.5
2015-Aug-22 22:27N 47°18' W 004°04'108 7.7
2015-Aug-22 08:22N 46°05' W 002°08'9 8.1
2015-Aug-22 07:12N 45°59' W 001°58'5 8.3
2015-Aug-22 06:33N 45°55' W 001°52'9 8.5
2015-Aug-22 05:29N 45°49' W 001°42'19 8.8
2015-Aug-22 03:19N 45°37' W 001°21'  
2015-Aug-19 14:33N 46°01' W 001°29'6 5.7
2015-Aug-19 13:34N 46°05' W 001°24'7 7.5
2015-Aug-19 12:34N 46°09' W 001°14'1 0.7
2015-Aug-19 11:33N 46°10' W 001°14'0 0.0
2015-Aug-19 10:33N 46°10' W 001°14'0 0.0
2015-Aug-19 09:34N 46°10' W 001°14'0 0.0
2015-Aug-19 08:34N 46°10' W 001°14'0 0.0
2015-Aug-19 07:33N 46°10' W 001°14'0 0.0
2015-Aug-19 06:33N 46°10' W 001°14'0 0.0
2015-Aug-19 05:34N 46°10' W 001°14'0 0.0
2015-Aug-19 04:34N 46°10' W 001°14'0 0.0
2015-Aug-19 03:34N 46°10' W 001°14'0 0.0
2015-Aug-19 02:33N 46°10' W 001°14'0 0.0
2015-Aug-19 01:34N 46°10' W 001°14'0 0.0
2015-Aug-19 00:33N 46°10' W 001°14'0 0.0
2015-Aug-18 23:34N 46°10' W 001°14'0 0.0
2015-Aug-18 22:34N 46°10' W 001°14'0 0.0
2015-Aug-18 21:33N 46°10' W 001°14'  
Track history (hours):
 
Tides and Currents Weather Stations Pressure Air Temp Water Temp Dewpoint Dewpoint Depression Visibility Wind Speed Wind Dir Waves Ship Positions

Burgtor

Last reported at 2015-Aug-28 21:24 UTC. Time now 2015-Aug-29 00:17 UTC.
Position N 54°04' W 005°22'.

Length 87 m; draft 3.3 m.

Type: Cargo ship. MMSI: 304665000.

Date/timePositionNaut miles runAvg speedWind from/ knotsBaromVisibWave heightAir tempDewpointWater temp
2015-Aug-28 21:24N 54°04' W 005°22'7 7.9
2015-Aug-28 20:33N 54°11' W 005°21'8 7.8
2015-Aug-28 19:33N 54°19' W 005°19'9 8.5
2015-Aug-28 18:32N 54°27' W 005°19'10 9.9
2015-Aug-28 17:33N 54°36' W 005°25'9 8.6
2015-Aug-28 16:33N 54°42' W 005°37'2 2.1
2015-Aug-28 15:31N 54°41' W 005°40'0 0.0
2015-Aug-28 14:31N 54°41' W 005°40'0 0.0
2015-Aug-28 13:31N 54°41' W 005°40'0 0.0
2015-Aug-28 12:31N 54°41' W 005°40'0 0.0
2015-Aug-28 11:31N 54°41' W 005°40'0 0.0
2015-Aug-28 10:28N 54°41' W 005°40'0 0.0
2015-Aug-28 09:31N 54°41' W 005°40'0 0.0
2015-Aug-28 08:31N 54°41' W 005°40'0 0.0
2015-Aug-28 07:31N 54°41' W 005°40'0 0.0
2015-Aug-28 06:19N 54°41' W 005°40'0 0.0
2015-Aug-28 05:31N 54°41' W 005°40'0 0.0
2015-Aug-28 04:28N 54°41' W 005°40'0 0.0
2015-Aug-28 03:28N 54°41' W 005°40'0 0.0
2015-Aug-28 02:31N 54°41' W 005°40'0 0.0
2015-Aug-28 01:31N 54°41' W 005°40'0 0.0
2015-Aug-28 00:31N 54°41' W 005°40'0 0.0
2015-Aug-27 23:31N 54°41' W 005°40'0 0.0
2015-Aug-27 22:34N 54°41' W 005°40'0 0.0
2015-Aug-27 21:33N 54°41' W 005°40'0 0.0
2015-Aug-27 20:30N 54°41' W 005°40'0 0.0
2015-Aug-27 19:33N 54°41' W 005°40'0 0.1
2015-Aug-27 18:30N 54°41' W 005°40'0 0.0
2015-Aug-27 17:33N 54°41' W 005°40'0 0.0
2015-Aug-27 16:33N 54°41' W 005°40'0 0.0
2015-Aug-27 15:27N 54°41' W 005°40'0 0.1
2015-Aug-27 14:33N 54°41' W 005°40'0 0.0
2015-Aug-27 13:30N 54°41' W 005°40'0 0.0
2015-Aug-27 12:33N 54°41' W 005°40'0 0.0
2015-Aug-27 11:27N 54°41' W 005°40'0 0.0
2015-Aug-27 10:33N 54°41' W 005°40'0 0.0
2015-Aug-27 09:33N 54°41' W 005°40'0 0.0
2015-Aug-27 08:33N 54°41' W 005°40'0 0.0
2015-Aug-27 07:33N 54°41' W 005°40'1 1.0
2015-Aug-27 06:33N 54°42' W 005°40'9 9.4
2015-Aug-27 05:33N 54°51' W 005°36'22 9.2
2015-Aug-27 03:12N 55°10' W 005°54'6 8.7
2015-Aug-27 02:33N 55°15' W 005°60'7 7.4
2015-Aug-27 01:33N 55°21' W 006°07'7 6.7
2015-Aug-27 00:34N 55°21' W 006°19'7 7.0
2015-Aug-26 23:34N 55°19' W 006°31'7 7.2
2015-Aug-26 22:34N 55°17' W 006°43'3 0.1
2015-Aug-25 16:33N 55°16' W 006°48'8 7.7
2015-Aug-25 15:33N 55°19' W 006°36'8 8.0
2015-Aug-25 14:33N 55°23' W 006°23'8 7.7
2015-Aug-25 13:33N 55°25' W 006°10'8 8.5
2015-Aug-25 12:33N 55°20' W 005°59'1010.2
2015-Aug-25 11:33N 55°11' W 005°50'20 9.9
2015-Aug-25 09:33N 54°53' W 005°36'9 9.6
2015-Aug-25 08:33N 54°44' W 005°29'9 9.4
2015-Aug-25 07:33N 54°35' W 005°24'9 8.7
2015-Aug-25 06:33N 54°27' W 005°19'8 8.3
2015-Aug-25 05:33N 54°19' W 005°19'11 8.4
2015-Aug-25 04:18N 54°08' W 005°21'108 8.2
2015-Aug-24 15:15N 52°21' W 005°40'7 9.8
2015-Aug-24 14:30N 52°14' W 005°41'302 7.5
2015-Aug-22 22:27N 47°18' W 004°04'108 7.7
2015-Aug-22 08:22N 46°05' W 002°08'9 8.1
2015-Aug-22 07:12N 45°59' W 001°58'5 8.3
2015-Aug-22 06:33N 45°55' W 001°52'9 8.5
2015-Aug-22 05:29N 45°49' W 001°42'19 8.8
2015-Aug-22 03:19N 45°37' W 001°21'  
2015-Aug-19 14:33N 46°01' W 001°29'6 5.7
2015-Aug-19 13:34N 46°05' W 001°24'7 7.5
2015-Aug-19 12:34N 46°09' W 001°14'1 0.7
2015-Aug-19 11:33N 46°10' W 001°14'0 0.0
2015-Aug-19 10:33N 46°10' W 001°14'0 0.0
2015-Aug-19 09:34N 46°10' W 001°14'0 0.0
2015-Aug-19 08:34N 46°10' W 001°14'0 0.0
2015-Aug-19 07:33N 46°10' W 001°14'0 0.0
2015-Aug-19 06:33N 46°10' W 001°14'0 0.0
2015-Aug-19 05:34N 46°10' W 001°14'0 0.0
2015-Aug-19 04:34N 46°10' W 001°14'0 0.0
2015-Aug-19 03:34N 46°10' W 001°14'0 0.0
2015-Aug-19 02:33N 46°10' W 001°14'0 0.0
2015-Aug-19 01:34N 46°10' W 001°14'0 0.0
2015-Aug-19 00:33N 46°10' W 001°14'0 0.0
2015-Aug-18 23:34N 46°10' W 001°14'0 0.0
2015-Aug-18 22:34N 46°10' W 001°14'0 0.0
2015-Aug-18 21:33N 46°10' W 001°14'  

Dump ship's entire track history